Flight Track Log - Related Links

Times and Time Zones

All times are in EDT time to prevent confusion due to time zone crossing. See the UPS1057 flight status page for this flight to view local times or setup timezone preferences in your user account.


Time Position Orientation Groundspeed Altitude Reporting Facility
EDT Latitude Longitude Course Direction KTS MPH feet Rate Location/Type
Tue 09:34:39 PM 42.8970 -71.4310 166° South 159 183 2,200  Level FlightAware ADS-B
Tue 09:34:54 PM 42.8920 -71.4500 250° West 195 224 2,600 1,500 Climbing FlightAware ADS-B
Tue 09:34:59 PM 42.8930 -71.4580 280° West 206 237 2,700 1,200 Climbing FlightAware ADS-B
Tue 09:35:09 PM 42.8980 -71.4700 300° West 222 255 2,900 1,800 Climbing FlightAware ADS-B
Tue 09:35:29 PM 42.9100 -71.4940 304° West 250 288 3,600 3,600 Climbing FlightAware ADS-B
Tue 09:35:49 PM 42.9240 -71.5190 307° West 239 275 5,300 4,650 Climbing FlightAware ADS-B
Tue 09:36:09 PM 42.9380 -71.5440 307° West 243 280 6,700 3,500 Climbing FlightAware ADS-B
Tue 09:36:25 PM 42.9450 -71.5600 301° West 241 277 7,400 3,300 Climbing FlightAware ADS-B
Tue 09:36:29 PM 42.9470 -71.5690 287° West 247 284 7,800 4,286 Climbing FlightAware ADS-B
Tue 09:36:39 PM 42.9490 -71.5870 279° West 251 289 8,400 3,200 Climbing FlightAware ADS-B
Tue 09:36:59 PM 42.9520 -71.6190 277° West 260 299 9,400 2,509 Climbing FlightAware ADS-B
Tue 09:37:34 PM 42.9550 -71.6800 274° West 298 343 10,700 1,886 Climbing FlightAware ADS-B
Tue 09:38:09 PM 42.9570 -71.7510 272° West 347 399 11,600 1,800 Climbing FlightAware ADS-B
Tue 09:38:44 PM 42.9580 -71.8280 271° West 369 425 12,800 2,657 Climbing FlightAware ADS-B
Tue 09:39:19 PM 42.9600 -71.9140 272° West 377 434 14,700 2,955 Climbing FlightAware ADS-B
Tue 09:39:51 PM 42.9620 -71.9850 272° West 383 441 16,100 2,571 Climbing FlightAware ADS-B
Tue 09:40:29 PM 42.9650 -72.0750 273° West 390 449 17,700 2,466 Climbing FlightAware ADS-B
Tue 09:41:04 PM 42.9680 -72.1660 273° West 402 463 19,100 2,400 Climbing FlightAware ADS-B
Tue 09:41:39 PM 42.9700 -72.2600 272° West 411 473 20,500 2,143 Climbing FlightAware ADS-B
Tue 09:42:14 PM 42.9730 -72.3500 273° West 421 484 21,600 1,184 Climbing FlightAware ADS-B
Tue 09:42:55 PM 42.9750 -72.4410 272° West 425 489 22,000 1,976 Climbing FlightAware ADS-B
Tue 09:43:39 PM 42.9790 -72.5840 272° West 442 509 24,400 2,658 Climbing FlightAware ADS-B
Tue 09:44:14 PM 42.9810 -72.6810 272° West 446 513 25,500 1,684 Climbing FlightAware ADS-B
Tue 09:44:36 PM 42.9760 -72.7440 264° West 454 522 26,000 1,418 Climbing FlightAware ADS-B
Tue 09:45:09 PM 42.9500 -72.8310 248° West 465 535 26,800 1,739 Climbing FlightAware ADS-B
Tue 09:45:45 PM 42.9160 -72.9290 245° Southwest 463 533 28,000 1,938 Climbing FlightAware ADS-B
Tue 09:46:14 PM 42.8940 -72.9920 245° Southwest 460 529 28,900 806 Climbing FlightAware ADS-B
Tue 09:46:52 PM 42.8640 -73.0770 244° Southwest 460 529 28,900  Level FlightAware ADS-B
Tue 09:47:38 PM 42.8270 -73.1790 244° Southwest 460 529 28,900 2,658 Level FlightAware ADS-B
Tue 09:48:11 PM 42.7850 -73.3060 246° West 455 524 32,400 3,618 Climbing FlightAware ADS-B
Tue 09:48:46 PM 42.7580 -73.3850 245° Southwest 457 526 33,000 1,286 Climbing FlightAware ADS-B
Tue 09:49:21 PM 42.7230 -73.4870 245° Southwest 455 524 33,900 857 Climbing FlightAware ADS-B
Tue 09:49:56 PM 42.6900 -73.5790 244° Southwest 455 524 34,000 83 Climbing FlightAware ADS-B
Tue 09:50:33 PM 42.6580 -73.6720 245° Southwest 451 519 34,000  Level FlightAware ADS-B
Tue 09:51:13 PM 42.6210 -73.7750 244° Southwest 448 516 34,000  Level FlightAware ADS-B
Tue 09:51:46 PM 42.5920 -73.8580 245° Southwest 448 516 34,000  Level FlightAware ADS-B
Tue 09:52:23 PM 42.5590 -73.9520 245° Southwest 449 517 34,000  Level FlightAware ADS-B
Tue 09:52:57 PM 42.5280 -74.0380 244° Southwest 448 516 34,000  Level FlightAware ADS-B
Tue 09:53:35 PM 42.4940 -74.1350 245° Southwest 448 516 34,000  Level FlightAware ADS-B
Tue 09:54:07 PM 42.4650 -74.2160 244° Southwest 447 514 34,000  Level FlightAware ADS-B
Tue 09:54:44 PM 42.4330 -74.3040 244° Southwest 447 514 34,000  Level FlightAware ADS-B
Tue 09:55:17 PM 42.4020 -74.3910 244° Southwest 445 512 34,000  Level FlightAware ADS-B
Tue 09:55:53 PM 42.3700 -74.4810 244° Southwest 445 512 34,000  Level FlightAware ADS-B
Tue 09:56:31 PM 42.3330 -74.5770 242° Southwest 447 514 34,000  Level FlightAware ADS-B
Tue 09:57:02 PM 42.3040 -74.6500 242° Southwest 446 513 34,000  Level FlightAware ADS-B
Tue 09:57:40 PM 42.2680 -74.7420 242° Southwest 444 511 34,000  Level FlightAware ADS-B
Tue 09:58:12 PM 42.2360 -74.8220 242° Southwest 444 511 34,000  Level FlightAware ADS-B
Tue 09:58:49 PM 42.1990 -74.9150 242° Southwest 445 512 34,000  Level FlightAware ADS-B
Tue 09:59:24 PM 42.1670 -74.9970 242° Southwest 444 511 34,000  Level FlightAware ADS-B
Tue 10:00:01 PM 42.1330 -75.0830 242° Southwest 444 511 34,000  Level FlightAware ADS-B
Tue 10:00:33 PM 42.1010 -75.1630 242° Southwest 443 510 34,000  Level FlightAware ADS-B
Tue 10:01:10 PM 42.0630 -75.2570 241° Southwest 442 509 34,000  Level FlightAware ADS-B
Tue 10:01:45 PM 42.0300 -75.3400 242° Southwest 442 509 34,000  Level FlightAware ADS-B
Tue 10:02:16 PM 42.0010 -75.4130 242° Southwest 442 509 34,000  Level FlightAware ADS-B
Tue 10:02:56 PM 41.9610 -75.5110 241° Southwest 444 511 34,000  Level FlightAware ADS-B
Tue 10:03:28 PM 41.9310 -75.5860 242° Southwest 444 511 34,000  Level FlightAware ADS-B
Tue 10:04:04 PM 41.8960 -75.6730 242° Southwest 446 513 34,000  Level FlightAware ADS-B
Tue 10:04:38 PM 41.8610 -75.7580 241° Southwest 446 513 34,000  Level FlightAware ADS-B
Tue 10:05:15 PM 41.8260 -75.8430 241° Southwest 445 512 34,000  Level FlightAware ADS-B
Tue 10:05:56 PM 41.7850 -75.9450 242° Southwest 444 511 34,000  Level FlightAware ADS-B
Tue 10:06:32 PM 41.7480 -76.0350 241° Southwest 443 510 34,000  Level FlightAware ADS-B
Tue 10:07:13 PM 41.7080 -76.1310 241° Southwest 443 510 34,000  Level FlightAware ADS-B
Tue 10:07:46 PM 41.6780 -76.2050 242° Southwest 443 510 34,000  Level FlightAware ADS-B
Tue 10:08:22 PM 41.6390 -76.2980 241° Southwest 445 512 34,000  Level FlightAware ADS-B
Tue 10:08:56 PM 41.6050 -76.3800 241° Southwest 445 512 34,000  Level FlightAware ADS-B
Tue 10:09:33 PM 41.5690 -76.4670 241° Southwest 445 512 34,000  Level FlightAware ADS-B
Tue 10:10:09 PM 41.5430 -76.5570 249° West 444 511 34,000  Level FlightAware ADS-B
Tue 10:10:44 PM 41.5240 -76.6500 255° West 444 511 34,000  Level FlightAware ADS-B
Tue 10:11:18 PM 41.5080 -76.7300 255° West 443 510 34,000  Level FlightAware ADS-B
Tue 10:11:59 PM 41.4850 -76.8460 255° West 472 543 34,000  Level FlightAware ADS-B
Tue 10:12:31 PM 41.4690 -76.9230 255° West 442 509 34,000  Level FlightAware ADS-B
Tue 10:13:06 PM 41.4490 -77.0200 255° West 441 507 34,000  Level FlightAware ADS-B
Tue 10:13:46 PM 41.4280 -77.1250 255° West 441 507 34,000  Level FlightAware ADS-B
Tue 10:14:16 PM 41.4130 -77.1960 254° West 441 507 34,000  Level FlightAware ADS-B
Tue 10:14:51 PM 41.3930 -77.2930 255° West 442 509 34,000  Level FlightAware ADS-B
Tue 10:15:31 PM 41.3710 -77.4010 255° West 443 510 34,000  Level FlightAware ADS-B
Tue 10:16:06 PM 41.3520 -77.4930 255° West 443 510 34,000  Level FlightAware ADS-B
Tue 10:16:36 PM 41.3360 -77.5680 254° West 443 510 34,000  Level FlightAware ADS-B
Tue 10:17:11 PM 41.3160 -77.6630 254° West 443 510 34,000  Level FlightAware ADS-B
Tue 10:17:51 PM 41.2960 -77.7560 254° West 443 510 34,000  Level FlightAware ADS-B
Tue 10:18:26 PM 41.2750 -77.8580 255° West 443 510 34,000  Level FlightAware ADS-B
Tue 10:18:56 PM 41.2580 -77.9370 254° West 443 510 34,000  Level FlightAware ADS-B
Tue 10:19:31 PM 41.2380 -78.0270 254° West 444 511 34,000  Level FlightAware ADS-B
Tue 10:20:11 PM 41.2150 -78.1350 254° West 446 513 34,000  Level FlightAware ADS-B
Tue 10:20:46 PM 41.1970 -78.2210 254° West 446 513 34,000  Level FlightAware ADS-B
Tue 10:21:21 PM 41.1760 -78.3170 254° West 447 514 34,000  Level FlightAware ADS-B
Tue 10:21:51 PM 41.1580 -78.3970 253° West 447 514 34,000  Level FlightAware ADS-B
Tue 10:22:26 PM 41.1380 -78.4890 254° West 448 516 34,000  Level FlightAware ADS-B
Tue 10:23:06 PM 41.1090 -78.5900 249° West 448 516 34,000  Level FlightAware ADS-B
Tue 10:23:41 PM 41.0820 -78.6780 248° West 448 516 34,000  Level FlightAware ADS-B
Tue 10:24:11 PM 41.0580 -78.7570 248° West 449 517 34,000  Level FlightAware ADS-B
Tue 10:24:51 PM 41.0280 -78.8540 248° West 451 519 34,000  Level FlightAware ADS-B
Tue 10:25:21 PM 41.0040 -78.9320 248° West 451 519 34,000  Level FlightAware ADS-B
Tue 10:25:56 PM 40.9760 -79.0230 248° West 452 520 34,000  Level FlightAware ADS-B
Tue 10:26:31 PM 40.9470 -79.1140 247° West 452 520 34,000  Level FlightAware ADS-B
Tue 10:27:11 PM 40.9160 -79.2140 248° West 451 519 34,000  Level FlightAware ADS-B
Tue 10:27:46 PM 40.8900 -79.2980 248° West 451 519 34,000  Level FlightAware ADS-B
Tue 10:28:18 PM 40.8610 -79.3890 247° West 451 519 34,000  Level FlightAware ADS-B
Tue 10:28:54 PM 40.8320 -79.4800 247° West 452 520 34,000  Level FlightAware ADS-B
Tue 10:29:30 PM 40.8020 -79.5740 247° West 454 522 34,000  Level FlightAware ADS-B
Tue 10:30:06 PM 40.7730 -79.6660 247° West 455 524 34,000  Level FlightAware ADS-B
Tue 10:30:38 PM 40.7470 -79.7490 248° West 456 525 34,000  Level FlightAware ADS-B
Tue 10:31:14 PM 40.7170 -79.8400 247° West 456 525 34,000  Level FlightAware ADS-B
Tue 10:31:50 PM 40.6880 -79.9320 247° West 456 525 34,000  Level FlightAware ADS-B
Tue 10:32:22 PM 40.6620 -80.0140 247° West 458 527 34,000  Level FlightAware ADS-B
Tue 10:33:00 PM 40.6300 -80.1110 247° West 459 528 34,000  Level FlightAware ADS-B
Tue 10:33:44 PM 40.5930 -80.2250 247° West 458 527 34,000  Level FlightAware ADS-B
Tue 10:34:16 PM 40.5690 -80.2990 247° West 457 526 34,000  Level FlightAware ADS-B
Tue 10:34:46 PM 40.5480 -80.3640 247° West 458 527 34,000  Level FlightAware ADS-B
Tue 10:35:26 PM 40.5100 -80.4810 247° West 460 529 34,000  Level FlightAware ADS-B
Tue 10:36:02 PM 40.4800 -80.5720 247° West 462 532 34,000  Level FlightAware ADS-B
Tue 10:36:42 PM 40.4440 -80.6800 246° West 464 534 34,000  Level FlightAware ADS-B
Tue 10:37:15 PM 40.4160 -80.7650 247° West 464 534 34,000  Level FlightAware ADS-B
Tue 10:37:56 PM 40.3840 -80.8630 247° West 464 534 34,000  Level FlightAware ADS-B
Tue 10:38:35 PM 40.3550 -80.9490 246° West 464 534 34,000  Level FlightAware ADS-B
Tue 10:39:24 PM 40.3100 -81.0820 246° West 464 534 34,000  Level FlightAware ADS-B
Tue 10:40:07 PM 40.2680 -81.2080 246° West 465 535 34,000  Level FlightAware ADS-B
Tue 10:40:44 PM 40.2410 -81.2890 246° West 465 535 34,000  Level FlightAware ADS-B
Tue 10:41:16 PM 40.2090 -81.3840 246° West 466 536 34,000  Level FlightAware ADS-B
Tue 10:41:59 PM 40.1700 -81.4970 246° West 466 536 34,000  Level FlightAware ADS-B
Tue 10:42:35 PM 40.1390 -81.5900 246° West 467 537 34,000  Level FlightAware ADS-B
Tue 10:43:11 PM 40.1070 -81.6820 246° West 468 539 34,000  Level FlightAware ADS-B
Tue 10:43:43 PM 40.0790 -81.7650 246° West 469 540 34,000  Level FlightAware ADS-B
Tue 10:44:19 PM 40.0460 -81.8590 245° Southwest 469 540 34,000  Level FlightAware ADS-B
Tue 10:44:55 PM 40.0150 -81.9500 246° West 469 540 34,000  Level FlightAware ADS-B
Tue 10:45:27 PM 39.9870 -82.0320 246° West 469 540 34,000  Level FlightAware ADS-B
Tue 10:46:04 PM 39.9550 -82.1230 245° Southwest 469 540 34,000  Level FlightAware ADS-B
Tue 10:46:41 PM 39.9210 -82.2200 245° Southwest 469 540 34,000  Level FlightAware ADS-B
Tue 10:47:13 PM 39.8920 -82.3030 246° West 470 541 34,000  Level FlightAware ADS-B
Tue 10:47:49 PM 39.8590 -82.3990 246° West 469 540 34,000  Level FlightAware ADS-B
Tue 10:48:25 PM 39.8270 -82.4900 245° Southwest 469 540 34,000  Level FlightAware ADS-B
Tue 10:49:00 PM 39.7950 -82.5790 245° Southwest 469 540 34,000  Level FlightAware ADS-B
Tue 10:49:33 PM 39.7670 -82.6580 245° Southwest 471 542 34,000  Level FlightAware ADS-B
Tue 10:50:09 PM 39.7320 -82.7580 246° West 472 543 34,000  Level FlightAware ADS-B
Tue 10:50:45 PM 39.7000 -82.8480 245° Southwest 472 543 34,000 -417 Level FlightAware ADS-B
Tue 10:51:21 PM 39.6660 -82.9420 245° Southwest 474 545 33,500 -882 Descending FlightAware ADS-B
Tue 10:51:53 PM 39.6360 -83.0250 245° Southwest 475 547 33,000 -971 Descending FlightAware ADS-B
Tue 10:52:29 PM 39.6030 -83.1180 245° Southwest 476 548 32,400 -971 Descending FlightAware ADS-B
Tue 10:53:01 PM 39.5730 -83.2000 245° Southwest 476 548 31,900 -971 Descending FlightAware ADS-B
Tue 10:53:37 PM 39.5400 -83.2940 246° West 478 550 31,300 -1,000 Descending FlightAware ADS-B
Tue 10:54:13 PM 39.5130 -83.3890 250° West 479 551 30,700 -1,000 Descending FlightAware ADS-B
Tue 10:54:49 PM 39.4860 -83.4880 251° West 482 555 30,100 -575 Descending FlightAware ADS-B
Tue 10:55:26 PM 39.4600 -83.5870 251° West 482 555 30,000 -79 Descending FlightAware ADS-B
Tue 10:56:05 PM 39.4320 -83.6910 251° West 484 557 30,000  Level FlightAware ADS-B
Tue 10:56:41 PM 39.4050 -83.7930 251° West 484 557 30,000 -667 Level FlightAware ADS-B
Tue 10:57:17 PM 39.3920 -83.8960 261° West 486 559 29,200 -1,412 Descending FlightAware ADS-B
Tue 10:57:49 PM 39.3820 -83.9890 262° West 483 556 28,400 -1,324 Descending FlightAware ADS-B
Tue 10:58:25 PM 39.3710 -84.0870 262° West 479 551 27,700 -1,250 Descending FlightAware ADS-B
Tue 10:59:01 PM 39.3610 -84.1870 263° West 444 511 26,900 -1,167 Descending FlightAware ADS-B
Tue 10:59:37 PM 39.3520 -84.2800 263° West 414 476 26,300 -943 Descending FlightAware ADS-B
Tue 11:00:11 PM 39.3440 -84.3580 262° West 402 463 25,800 -1,385 Descending FlightAware ADS-B
Tue 11:00:42 PM 39.3370 -84.4320 263° West 395 455 24,800 -1,244 Descending FlightAware ADS-B
Tue 11:01:33 PM 39.3200 -84.5430 259° West 396 456 24,100 -1,808 Descending FlightAware ADS-B
Tue 11:01:55 PM 39.2780 -84.5810 215° Southwest 407 468 22,600 -2,618 Descending FlightAware ADS-B
Tue 11:02:28 PM 39.2260 -84.6090 203° Southwest 407 468 21,700 -1,644 Descending FlightAware ADS-B
Tue 11:03:08 PM 39.1580 -84.6390 199° South 403 464 20,600 -1,714 Descending FlightAware ADS-B
Tue 11:03:38 PM 39.1010 -84.6640 199° South 399 459 19,700 -1,818 Descending FlightAware ADS-B
Tue 11:04:14 PM 39.0410 -84.6940 201° Southwest 394 453 18,600 -1,629 Descending FlightAware ADS-B
Tue 11:04:48 PM 38.9940 -84.7260 208° Southwest 388 447 17,800 -1,800 Descending FlightAware ADS-B
Tue 11:05:24 PM 38.9320 -84.7840 216° Southwest 374 430 16,500 -1,917 Descending FlightAware ADS-B
Tue 11:06:00 PM 38.8830 -84.8330 218° Southwest 364 419 15,500 -1,667 Descending FlightAware ADS-B
Tue 11:06:36 PM 38.8370 -84.8780 217° Southwest 356 410 14,500 -1,478 Descending FlightAware ADS-B
Tue 11:07:09 PM 38.7940 -84.9200 217° Southwest 356 410 13,800 -1,114 Descending FlightAware ADS-B
Tue 11:07:46 PM 38.7430 -84.9680 216° Southwest 354 407 13,200 -1,068 Descending FlightAware ADS-B
Tue 11:08:22 PM 38.6960 -85.0140 217° Southwest 352 405 12,500 -1,083 Descending FlightAware ADS-B
Tue 11:08:58 PM 38.6500 -85.0580 217° Southwest 348 400 11,900 -618 Descending FlightAware ADS-B
Tue 11:09:30 PM 38.6090 -85.0980 217° Southwest 344 396 11,800 -94 Descending FlightAware ADS-B
Tue 11:10:02 PM 38.5690 -85.1360 217° Southwest 345 397 11,800  Level FlightAware ADS-B
Tue 11:10:38 PM 38.5230 -85.1800 217° Southwest 346 398 11,800 -600 Level FlightAware ADS-B
Tue 11:11:22 PM 38.4690 -85.2310 216° Southwest 331 381 11,000 -975 Descending FlightAware ADS-B
Tue 11:11:58 PM 38.4250 -85.2730 217° Southwest 301 346 10,500 -1,031 Descending FlightAware ADS-B
Tue 11:12:26 PM 38.3940 -85.3030 217° Southwest 293 337 9,900 -1,375 Descending FlightAware ADS-B
Tue 11:12:46 PM 38.3720 -85.3240 217° Southwest 288 331 9,400 -1,333 Descending FlightAware ADS-B
Tue 11:13:02 PM 38.3570 -85.3390 218° Southwest 285 328 9,100 -1,333 Descending FlightAware ADS-B
Tue 11:13:22 PM 38.3350 -85.3600 217° Southwest 282 325 8,600 -1,579 Descending FlightAware ADS-B
Tue 11:13:40 PM 38.3180 -85.3760 216° Southwest 282 325 8,100 -1,622 Descending FlightAware ADS-B
Tue 11:13:59 PM 38.2960 -85.3970 217° Southwest 278 320 7,600 -1,538 Descending FlightAware ADS-B
Tue 11:14:19 PM 38.2750 -85.4160 215° Southwest 275 316 7,100 -1,500 Descending FlightAware ADS-B
Tue 11:14:39 PM 38.2550 -85.4350 217° Southwest 272 313 6,600 -1,371 Descending FlightAware ADS-B
Tue 11:14:54 PM 38.2410 -85.4500 220° Southwest 270 311 6,300 -1,500 Descending FlightAware ADS-B
Tue 11:14:59 PM 38.2380 -85.4570 241° Southwest 269 310 6,100 -1,385 Descending FlightAware ADS-B
Tue 11:15:07 PM 38.2340 -85.4680 245° Southwest 266 306 6,000 -750 Descending FlightAware ADS-B
Tue 11:15:15 PM 38.2320 -85.4800 258° West 261 300 5,900 -600 Descending FlightAware ADS-B
Tue 11:15:27 PM 38.2310 -85.4990 266° West 251 289 5,800 -167 Descending FlightAware ADS-B
Tue 11:15:51 PM 38.2300 -85.5330 268° West 227 261 5,800  Level FlightAware ADS-B
Tue 11:16:19 PM 38.2370 -85.5670 285° West 230 265 5,800  Level FlightAware ADS-B
Tue 11:16:23 PM 38.2410 -85.5720 316° Northwest 233 268 5,800  Level FlightAware ADS-B
Tue 11:16:31 PM 38.2480 -85.5770 331° Northwest 237 273 5,800  Level FlightAware ADS-B
Tue 11:16:51 PM 38.2680 -85.5870 339° North 237 273 5,800 -333 Level FlightAware ADS-B
Tue 11:17:07 PM 38.2830 -85.5950 337° Northwest 234 269 5,600 -1,167 Descending FlightAware ADS-B
Tue 11:17:27 PM 38.3040 -85.6050 340° North 234 269 5,100 -1,350 Descending FlightAware ADS-B
Tue 11:17:47 PM 38.3240 -85.6160 337° Northwest 230 265 4,700 -1,227 Descending FlightAware ADS-B
Tue 11:18:11 PM 38.3480 -85.6270 340° North 230 265 4,200 -1,167 Descending FlightAware ADS-B
Tue 11:18:23 PM 38.3600 -85.6330 339° North 227 261 4,000 -857 Descending FlightAware ADS-B
Tue 11:18:39 PM 38.3730 -85.6460 322° Northwest 217 250 3,800 -429 Descending FlightAware ADS-B
Tue 11:18:51 PM 38.3770 -85.6610 289° West 216 249 3,800 -150 Level FlightAware ADS-B
Tue 11:19:19 PM 38.3720 -85.6950 259° West 208 239 3,700 -625 Descending FlightAware ADS-B
Tue 11:19:39 PM 38.3680 -85.7180 258° West 208 239 3,300 -857 Descending FlightAware ADS-B
Tue 11:19:54 PM 38.3640 -85.7350 253° West 198 228 3,200 -500 Descending FlightAware ADS-B
Tue 11:20:03 PM 38.3600 -85.7430 237° Southwest 191 220 3,100 -462 Descending FlightAware ADS-B
Tue 11:20:07 PM 38.3580 -85.7440 201° Southwest 190 219 3,100 -1,000 Level FlightAware ADS-B
Tue 11:20:15 PM 38.3500 -85.7500 210° Southwest 186 214 2,900 -1,154 Descending FlightAware ADS-B
Tue 11:20:33 PM 38.3350 -85.7550 195° South 183 211 2,600 -750 Descending FlightAware ADS-B
Tue 11:20:55 PM 38.3180 -85.7600 193° South 159 183 2,400 -474 Descending FlightAware ADS-B
Tue 11:21:11 PM 38.3070 -85.7640 196° South 154 177 2,300 -176 Descending FlightAware ADS-B
Tue 11:21:29 PM 38.2950 -85.7670 191° South 156 180 2,300 -300 Level FlightAware ADS-B
Tue 11:21:51 PM 38.2790 -85.7630 169° South 162 186 2,100 -686 Descending FlightAware ADS-B
Tue 11:22:04 PM 38.2700 -85.7590 161° South 154 177 1,900 -789 Descending FlightAware ADS-B
Tue 11:22:29 PM 38.2540 -85.7540 166° South 130 150 1,600 -638 Descending FlightAware ADS-B
Tue 11:22:51 PM 38.2410 -85.7500 166° South 131 151 1,400 -571 Descending FlightAware ADS-B
Tue 11:23:11 PM 38.2290 -85.7460 165° South 128 147 1,200 -750 Descending FlightAware ADS-B
Tue 11:23:23 PM 38.2220 -85.7430 161° South 130 150 1,000 -667 Descending FlightAware ADS-B
Tue 11:23:47 PM 38.2080 -85.7380 164° South 132 152 800 -545 Descending FlightAware ADS-B
Tue 11:24:07 PM 38.1960 -85.7340 165° South 131 151 600 -769 Descending FlightAware ADS-B
Tue 11:24:26 PM 38.1860 -85.7310 167° South 132 152 300 -947 Descending FlightAware ADS-B
Tue 11:24:49 PM 38.1740 -85.7270 165° South 78 90 -783 Descending FlightAware ADS-B

Login

Don't have an account? Register now (free) for customized features, flight alerts, and more!